LRTC - TULCEA / DELTA DUNARII

Compiled: 17:40:56 on 20/10/2018

Latest METAR/SPECI Reports

METAR LRTC 201730Z AUTO 32005KT 7000 BKN065/// 16/09 Q1018=

Previous reports

METAR LRTC 201700Z AUTO 29005KT 6000 BKN070/// 15/10 Q1018=
METAR LRTC 201630Z 31006KT 6000 NSC 15/10 Q1018 R16/190095=
METAR LRTC 201600Z 31005KT 6000 NSC 15/10 Q1018 R16/190095=
METAR LRTC 201530Z 32007KT 7000 NSC 16/10 Q1018 R16/190095=

Latest TAF report

TAF AMD LRTC 201702Z 2017/2024 CNL=

Valid WARNINGS

No valid warnings for LRTC